Harwood, Maryland
Current Conditions -  °F | °C
As of 1:54 PM on Saturday 25 Oct 2014 (Local Time) from KNAK Reporting Station
Clear Clear  
Wind Chill: 69°   Ceiling: Unl
Heat Index: 69°   Visibility: 10mi
Dew Point: 42°   Wind: 9mph
Humidity: 38%   Direction: 270°W
Pressure: 29.83"   Gusts: 17mph
Location:  38.87°N, 76.62°W
Report Text: KNAK 251754Z AUTO 27008G15KT 10SM CLR 21/06 A2983 RMK AO2 SLP104 T02060056 10206 20083 57037
Loading
Personal Weather Stations






























Interactive Weather Map
Tropical Storm Tracking
New forecast layout! Learn more

10-Day Weather Forecast

Advertisements
Track Severe Weather on mobile